Portada
METAR-TAF:

METAR-TAF

Aeropuertos :

Trípoli, Libia

Aeropuerto Internacional Mitiga

latitud: 32-54N, longitud: 13-17E, altitud: 11 m

Observación

El informe se hizo hace 1 hora y 0 minutos, a las 09:00 UTC
Viento 5 kt del sur
Temperatura 16°C
Humedad 42%
Presión 1012 hPa
Visibilidad: 7000 m

METAR: HLLM 240900Z 17005KT 7000 NSC 16/03 Q1012

Hora: 12:00 (10:00 UTC)

Pronóstico

Pronóstico válido del 24 a las 05 UTC al 25 a las 00 UTC
Viento 2 kt con dirección variable
Visibilidad 10 km o más
Nubes dispersas a una altura de 2500 ft
Evolucionando progresivamente
del 24 a las 12 UTC al 24 a las 14 UTC
Viento 10 kt del este-sureste
Evolucionando progresivamente
del 25 a las 00 UTC al 25 a las 02 UTC
Viento 2 kt con dirección variable
Evolucionando progresivamente
del 25 a las 03 UTC al 25 a las 05 UTC
Viento 15 kt del oeste

TAF: HLLM 240500 2406/2506 VRB02KT 9999 SCT025 BECMG 2412/2414 12010KT BECMG 2500/2502 VRB02KT BECMG 2503/2505 26015KT

Observaciones y pronósticos meteorológicos de más de 4000 aeropuertos (mensajes METAR y TAF).

Los puntos amarillos y rojos representan las estaciones disponibles.

Ponga el ratón en el punto deseado para ver el nombre de la estación.

Haga clic para ver las observaciones y los pronósticos meteorológicos.

Para cambiar el mapa : haga clic en los botones verdes con una cruz de color negro para hacer un zoom, en el botón verde con un guión para alejar o en las flechas verdes para mapas adyacentes.


METAR-TAF: